createdAt,value
2018-02-06T00:01:44.229Z,12.45
2018-02-06T00:04:11.753Z,14.52
2018-02-06T00:06:39.373Z,17.17
2018-02-06T00:09:06.935Z,15.73
2018-02-06T00:11:34.808Z,16.52
2018-02-06T00:14:02.358Z,14.10
2018-02-06T00:16:30.335Z,12.15
2018-02-06T00:18:57.848Z,10.95
2018-02-06T00:21:26.161Z,12.55
2018-02-06T00:23:53.723Z,12.85
2018-02-06T00:26:21.269Z,14.32
2018-02-06T00:28:48.863Z,12.52
2018-02-06T00:31:16.381Z,11.75
2018-02-06T00:33:44.686Z,10.35
2018-02-06T00:36:12.229Z,14.82
2018-02-06T00:44:23.966Z,11.75
2018-02-06T00:49:43.165Z,13.20
2018-02-06T00:52:10.719Z,17.20
2018-02-06T00:54:38.223Z,12.73
2018-02-06T00:57:05.727Z,20.37
2018-02-06T00:59:33.291Z,12.00
2018-02-06T01:02:00.854Z,12.37
2018-02-06T01:04:28.395Z,15.00
2018-02-06T01:06:56.671Z,13.88
2018-02-06T01:09:24.975Z,14.60
2018-02-06T01:11:52.486Z,14.70
2018-02-06T01:14:20.095Z,16.62
2018-02-06T01:16:47.931Z,12.45
2018-02-06T01:19:16.377Z,11.88
2018-02-06T01:21:43.907Z,13.70
2018-02-06T01:24:11.570Z,10.23
2018-02-06T01:26:39.130Z,16.30
2018-02-06T01:29:07.722Z,14.80
2018-02-06T01:31:35.683Z,10.88
2018-02-06T01:34:04.043Z,13.23
2018-02-06T01:36:31.941Z,13.40
2018-02-06T01:38:59.500Z,16.00
2018-02-06T01:41:28.408Z,12.77
2018-02-06T01:43:56.904Z,12.40
2018-02-06T01:46:24.618Z,12.30
2018-02-06T01:48:52.246Z,16.62
2018-02-06T01:51:19.831Z,12.85
2018-02-06T01:53:47.375Z,14.55
2018-02-06T01:56:15.651Z,15.77
2018-02-06T01:58:44.906Z,13.13
2018-02-06T02:01:13.914Z,15.25
2018-02-06T02:03:42.591Z,13.93
2018-02-06T02:06:10.555Z,12.25
2018-02-06T02:08:38.534Z,14.85
2018-02-06T02:11:08.003Z,16.27
2018-02-06T02:13:36.105Z,14.90
2018-02-06T02:16:04.888Z,18.73
2018-02-06T02:18:32.953Z,13.50
2018-02-06T02:21:00.927Z,13.00
2018-02-06T02:23:29.047Z,16.00
2018-02-06T02:25:57.277Z,15.90
2018-02-06T02:28:25.969Z,12.70
2018-02-06T02:30:54.805Z,14.87
2018-02-06T02:33:23.598Z,19.65
2018-02-06T02:35:51.916Z,14.40
2018-02-06T02:38:20.227Z,13.68
2018-02-06T02:40:48.345Z,15.25
2018-02-06T04:39:32.198Z,20.15
2018-02-06T04:42:01.551Z,25.35
2018-02-06T04:44:29.902Z,21.17
2018-02-06T04:46:58.915Z,19.23
2018-02-06T04:49:27.151Z,18.52
2018-02-06T04:51:56.395Z,15.25
2018-02-06T04:54:26.497Z,19.15
2018-02-06T04:56:54.881Z,18.02
2018-02-06T04:59:23.366Z,19.48
2018-02-06T05:01:51.463Z,17.60
2018-02-06T05:04:20.946Z,15.65
2018-02-06T05:06:48.756Z,19.83
2018-02-06T05:09:17.294Z,26.23
2018-02-06T05:11:46.185Z,19.87
2018-02-06T05:14:14.731Z,27.65
2018-02-06T05:16:44.016Z,18.45
2018-02-06T05:19:12.761Z,17.77
2018-02-06T05:21:41.590Z,30.27
2018-02-06T05:24:10.280Z,17.95
2018-02-06T05:26:39.250Z,27.45
2018-02-06T05:29:07.635Z,21.58
2018-02-06T05:31:36.124Z,26.85
2018-02-06T05:34:03.976Z,19.83
2018-02-06T05:36:32.118Z,19.55
2018-02-06T05:39:00.592Z,18.40
2018-02-06T05:41:28.506Z,19.70
2018-02-06T05:43:56.561Z,17.35
2018-02-06T05:46:24.827Z,18.85
2018-02-06T05:48:52.901Z,19.23
2018-02-06T05:51:21.328Z,17.20
2018-02-06T05:53:49.541Z,21.98
2018-02-06T05:56:17.811Z,18.37
2018-02-06T05:58:45.897Z,16.05
2018-02-06T06:01:13.908Z,19.73
2018-02-06T06:03:42.103Z,18.15
2018-02-06T06:06:11.293Z,21.17
2018-02-06T06:08:39.692Z,18.33
2018-02-06T06:11:08.134Z,18.20
2018-02-06T06:13:36.313Z,15.98
2018-02-06T06:16:04.856Z,18.37
2018-02-06T06:18:32.773Z,21.17
2018-02-06T06:21:00.975Z,20.83
2018-02-06T06:23:29.702Z,18.92
2018-02-06T06:25:58.214Z,22.55
2018-02-06T06:28:26.497Z,22.85
2018-02-06T06:30:54.404Z,20.10
2018-02-06T06:33:22.989Z,18.02
2018-02-06T06:35:51.465Z,22.37
2018-02-06T06:38:19.381Z,23.98
2018-02-06T06:40:47.407Z,30.73
2018-02-06T06:43:15.843Z,47.50
2018-02-06T06:45:43.781Z,57.40
2018-02-06T06:48:11.577Z,80.32
2018-02-06T06:50:39.216Z,86.03
2018-02-06T06:53:07.571Z,63.47
2018-02-06T06:55:36.169Z,51.13
2018-02-06T06:58:03.794Z,31.58
2018-02-06T07:00:31.539Z,49.05
2018-02-06T07:02:59.162Z,34.65
2018-02-06T07:05:26.996Z,84.55
2018-02-06T07:07:55.621Z,27.27
2018-02-06T07:10:23.394Z,39.63
2018-02-06T07:12:51.398Z,33.08
2018-02-06T07:15:19.336Z,37.25
2018-02-06T07:17:47.297Z,33.47
2018-02-06T07:20:15.063Z,31.95
2018-02-06T07:22:42.975Z,27.65
2018-02-06T07:25:10.666Z,22.65
2018-02-06T07:27:39.418Z,22.17
2018-02-06T07:30:08.198Z,20.95
2018-02-06T07:32:36.252Z,25.17
2018-02-06T07:35:04.028Z,17.00
2018-02-06T07:37:31.897Z,16.75
2018-02-06T07:40:00.026Z,18.15
2018-02-06T07:42:28.509Z,19.62
2018-02-06T07:44:56.310Z,15.40
2018-02-06T07:47:24.743Z,17.85
2018-02-06T07:49:53.391Z,16.95
2018-02-06T07:52:21.545Z,19.65
2018-02-06T07:54:49.220Z,19.27
2018-02-06T07:57:16.981Z,23.85
2018-02-06T07:59:44.836Z,20.27
2018-02-06T08:02:13.066Z,24.85
2018-02-06T08:04:41.606Z,35.75
2018-02-06T08:07:10.116Z,28.92
2018-02-06T08:09:37.792Z,21.33
2018-02-06T08:12:05.688Z,17.40
2018-02-06T08:14:34.296Z,23.80
2018-02-06T08:17:02.413Z,16.85
2018-02-06T08:19:31.058Z,28.95
2018-02-06T08:21:58.794Z,17.33
2018-02-06T08:24:26.588Z,30.90
2018-02-06T08:26:55.506Z,19.83
2018-02-06T08:29:23.298Z,20.48
2018-02-06T08:31:51.854Z,22.67
2018-02-06T08:34:20.682Z,21.77
2018-02-06T08:36:49.531Z,20.77
2018-02-06T08:39:17.524Z,32.15
2018-02-06T08:41:46.607Z,20.12
2018-02-06T08:44:15.362Z,17.60
2018-02-06T08:46:43.023Z,26.90
2018-02-06T08:49:10.733Z,26.50
2018-02-06T08:51:38.673Z,17.80
2018-02-06T08:54:24.438Z,24.35
2018-02-06T08:56:52.212Z,17.90
2018-02-06T08:59:19.871Z,19.67
2018-02-06T09:01:48.546Z,14.93
2018-02-06T09:04:16.904Z,16.45
2018-02-06T09:06:45.829Z,19.37
2018-02-06T09:09:13.828Z,20.17
2018-02-06T09:11:42.502Z,15.52
2018-02-06T09:14:10.557Z,17.70
2018-02-06T09:16:38.365Z,19.80
2018-02-06T09:19:07.357Z,20.25
2018-02-06T09:21:35.831Z,15.90
2018-02-06T09:24:03.605Z,15.05
2018-02-06T09:26:31.370Z,19.25
2018-02-06T09:28:59.203Z,16.30
2018-02-06T09:31:27.280Z,19.10
2018-02-06T09:33:54.914Z,13.93
2018-02-06T09:36:23.471Z,17.02
2018-02-06T09:38:51.502Z,16.25
2018-02-06T09:41:19.573Z,21.35
2018-02-06T09:43:47.694Z,14.27
2018-02-06T09:46:16.481Z,20.02
2018-02-06T09:48:45.566Z,14.48
2018-02-06T09:51:14.419Z,17.83
2018-02-06T09:53:43.003Z,17.27
2018-02-06T09:56:11.427Z,18.35
2018-02-06T09:58:40.076Z,19.23
2018-02-06T10:01:07.847Z,15.73
2018-02-06T10:03:35.807Z,15.70
2018-02-06T10:06:03.692Z,15.43
2018-02-06T10:08:32.159Z,17.77
2018-02-06T10:11:00.837Z,16.65
2018-02-06T10:13:28.744Z,19.30
2018-02-06T10:15:56.608Z,14.95
2018-02-06T10:18:25.393Z,18.30
2018-02-06T10:20:53.376Z,20.37
2018-02-06T10:23:21.414Z,17.98
2018-02-06T10:25:49.764Z,16.20
2018-02-06T10:28:17.561Z,19.02
2018-02-06T10:30:45.435Z,14.40
2018-02-06T10:33:13.341Z,17.25
2018-02-06T10:35:41.985Z,14.70
2018-02-06T10:38:09.781Z,18.47
2018-02-06T10:40:38.485Z,22.40
2018-02-06T10:43:07.001Z,14.43
2018-02-06T10:45:35.235Z,13.10
2018-02-06T10:48:03.930Z,15.27
2018-02-06T10:50:32.888Z,15.07
2018-02-06T10:53:00.805Z,15.38
2018-02-06T10:55:29.584Z,16.67
2018-02-06T10:57:58.489Z,16.58
2018-02-06T11:00:26.888Z,17.62
2018-02-06T11:02:55.167Z,22.40
2018-02-06T11:05:23.678Z,16.37
2018-02-06T11:07:52.340Z,16.37
2018-02-06T11:10:20.789Z,45.13
2018-02-06T11:12:48.693Z,40.20
2018-02-06T11:15:17.088Z,43.45
2018-02-06T11:17:46.051Z,41.10
2018-02-06T11:20:15.146Z,24.45
2018-02-06T11:22:43.023Z,30.85
2018-02-06T11:25:10.839Z,14.45
2018-02-06T11:27:39.010Z,36.05
2018-02-06T11:30:07.177Z,13.30
2018-02-06T11:32:36.227Z,27.60
2018-02-06T11:35:05.172Z,13.40
2018-02-06T11:37:33.445Z,18.15
2018-02-06T11:40:01.492Z,15.75
2018-02-06T11:42:29.824Z,26.65
2018-02-06T11:44:58.955Z,16.77
2018-02-06T11:47:27.761Z,16.95
2018-02-06T11:49:55.794Z,44.20
2018-02-06T11:52:23.782Z,24.33
2018-02-06T11:54:52.068Z,15.02
2018-02-06T11:57:20.031Z,28.30
2018-02-06T11:59:48.225Z,28.58
2018-02-06T12:02:17.087Z,17.20
2018-02-06T12:04:45.428Z,22.98
2018-02-06T12:07:14.217Z,26.83
2018-02-06T12:09:42.036Z,23.25
2018-02-06T12:12:09.930Z,28.87
2018-02-06T12:14:37.784Z,17.02
2018-02-06T12:17:05.811Z,15.60
2018-02-06T12:19:34.525Z,14.02
2018-02-06T12:22:02.249Z,18.92
2018-02-06T12:24:30.774Z,48.92
2018-02-06T12:26:58.507Z,21.37
2018-02-06T12:29:27.044Z,14.00
2018-02-06T12:31:55.126Z,21.42
2018-02-06T12:34:22.852Z,11.85
2018-02-06T12:36:50.830Z,21.92
2018-02-06T12:39:18.724Z,16.37
2018-02-06T12:41:46.405Z,15.05
2018-02-06T12:44:14.565Z,14.75
2018-02-06T12:46:42.522Z,15.60
2018-02-06T12:49:10.196Z,17.77
2018-02-06T12:51:37.768Z,20.27
2018-02-06T12:54:05.521Z,19.05
2018-02-06T12:56:33.144Z,15.32
2018-02-06T12:59:00.775Z,18.62
2018-02-06T13:01:29.306Z,15.07
2018-02-06T13:04:00.486Z,16.50
2018-02-06T13:06:29.036Z,17.67
2018-02-06T13:08:56.850Z,18.48
2018-02-06T13:11:24.735Z,18.05
2018-02-06T13:13:53.272Z,17.33
2018-02-06T13:16:21.751Z,14.40
2018-02-06T13:18:49.334Z,16.87
2018-02-06T13:21:16.942Z,20.67
2018-02-06T13:23:44.724Z,20.37
2018-02-06T13:26:12.439Z,21.73
2018-02-06T13:28:40.173Z,20.98
2018-02-06T13:31:08.141Z,16.12
2018-02-06T13:33:36.046Z,19.60
2018-02-06T13:36:04.447Z,18.20
2018-02-06T13:38:32.157Z,16.70
2018-02-06T13:40:59.951Z,20.30
2018-02-06T13:43:28.385Z,18.87
2018-02-06T13:45:56.174Z,21.37
2018-02-06T13:48:23.823Z,20.67
2018-02-06T13:50:51.891Z,19.37
2018-02-06T13:53:20.046Z,17.98
2018-02-06T13:55:47.831Z,19.85
2018-02-06T13:58:15.643Z,20.60
2018-02-06T14:00:44.052Z,23.52
2018-02-06T14:03:12.002Z,20.62
2018-02-06T14:05:40.757Z,24.90
2018-02-06T14:08:08.494Z,19.70
2018-02-06T14:10:36.551Z,21.23
2018-02-06T14:13:04.633Z,24.20
2018-02-06T14:15:32.536Z,20.60
2018-02-06T14:18:00.369Z,19.70
2018-02-06T14:20:27.967Z,24.42
2018-02-06T14:22:55.927Z,20.10
2018-02-06T14:25:24.725Z,16.60
2018-02-06T14:27:53.286Z,27.70
2018-02-06T14:30:21.662Z,15.98
2018-02-06T14:32:49.401Z,21.58
2018-02-06T14:35:17.318Z,19.95
2018-02-06T14:37:44.866Z,21.30
2018-02-06T14:40:12.488Z,19.02
2018-02-06T14:42:40.026Z,17.98
2018-02-06T14:45:08.309Z,24.73
2018-02-06T14:47:36.610Z,20.95
2018-02-06T14:50:04.119Z,31.80
2018-02-06T14:52:31.723Z,24.02
2018-02-06T14:54:59.280Z,27.52
2018-02-06T14:57:26.869Z,21.90
2018-02-06T14:59:54.385Z,35.35
2018-02-06T15:02:22.674Z,38.72
2018-02-06T15:04:50.671Z,19.83
2018-02-06T15:07:19.031Z,23.80
2018-02-06T15:09:46.601Z,22.85
2018-02-06T15:12:14.145Z,19.02
2018-02-06T15:14:41.648Z,19.73
2018-02-06T15:17:09.187Z,22.48
2018-02-06T15:19:36.689Z,21.77
2018-02-06T15:22:04.219Z,22.25
2018-02-06T15:24:31.753Z,18.98
2018-02-06T15:26:59.258Z,24.87
2018-02-06T15:29:26.770Z,21.15
2018-02-06T15:31:54.283Z,18.37
2018-02-06T15:34:21.807Z,17.08
2018-02-06T15:36:49.366Z,19.27
2018-02-06T15:39:16.896Z,20.42
2018-02-06T15:41:45.219Z,19.60
2018-02-06T15:44:12.898Z,20.15
2018-02-06T15:46:41.274Z,20.73
2018-02-06T15:49:08.808Z,19.37
2018-02-06T15:51:36.329Z,16.77
2018-02-06T15:54:04.636Z,18.62
2018-02-06T15:56:32.200Z,19.90
2018-02-06T15:58:59.859Z,20.60
2018-02-06T16:01:27.403Z,21.23
2018-02-06T16:03:54.933Z,17.15
2018-02-06T16:06:22.552Z,17.00
2018-02-06T16:08:50.104Z,18.23
2018-02-06T16:11:17.839Z,14.85
2018-02-06T16:13:46.126Z,18.20
2018-02-06T16:16:14.415Z,20.10
2018-02-06T16:18:41.945Z,19.92
2018-02-06T16:21:09.544Z,28.02
2018-02-06T16:23:37.496Z,37.28
2018-02-06T16:26:05.090Z,16.55
2018-02-06T16:28:32.833Z,19.90
2018-02-06T16:31:00.423Z,22.52
2018-02-06T16:33:28.023Z,17.95
2018-02-06T16:35:56.317Z,18.73
2018-02-06T16:38:25.854Z,22.27
2018-02-06T16:40:54.033Z,26.17
2018-02-06T16:43:21.783Z,27.80
2018-02-06T16:45:50.058Z,33.35
2018-02-06T16:48:17.838Z,25.58
2018-02-06T16:50:45.710Z,24.98
2018-02-06T16:53:14.086Z,21.58
2018-02-06T16:55:41.955Z,31.33
2018-02-06T16:58:09.793Z,30.48
2018-02-06T17:00:38.613Z,35.05
2018-02-06T17:03:06.211Z,22.80
2018-02-06T17:05:34.491Z,19.65
2018-02-06T17:08:02.154Z,32.92
2018-02-06T17:10:30.425Z,21.55
2018-02-06T17:12:58.321Z,21.92
2018-02-06T17:15:26.446Z,25.62
2018-02-06T17:17:55.805Z,23.87
2018-02-06T17:20:24.290Z,19.23
2018-02-06T17:22:53.213Z,20.00
2018-02-06T17:25:21.908Z,23.05
2018-02-06T17:27:51.272Z,28.25
2018-02-06T17:30:19.817Z,22.75
2018-02-06T17:32:47.862Z,23.73
2018-02-06T17:35:17.150Z,21.52
2018-02-06T17:37:44.807Z,22.98
2018-02-06T17:40:12.877Z,22.00
2018-02-06T17:42:40.925Z,22.92
2018-02-06T17:45:09.373Z,23.12
2018-02-06T17:47:37.327Z,23.15
2018-02-06T17:50:06.645Z,26.83
2018-02-06T17:52:35.307Z,23.48
2018-02-06T17:55:03.091Z,21.23
2018-02-06T17:57:32.212Z,22.42
2018-02-06T17:59:59.811Z,26.42
2018-02-06T18:02:27.806Z,24.77
2018-02-06T18:04:55.404Z,20.73
2018-02-06T18:07:23.214Z,22.62
2018-02-06T18:09:50.935Z,26.55
2018-02-06T18:12:19.475Z,25.35
2018-02-06T18:14:47.454Z,29.33
2018-02-06T18:17:16.211Z,33.33
2018-02-06T18:19:43.827Z,37.33
2018-02-06T18:22:11.456Z,32.13
2018-02-06T18:24:39.263Z,33.53
2018-02-06T18:27:06.803Z,38.38
2018-02-06T18:29:34.424Z,51.88
2018-02-06T18:32:02.718Z,29.50
2018-02-06T18:34:30.266Z,29.25
2018-02-06T18:36:57.833Z,25.12
2018-02-06T18:39:25.509Z,24.63
2018-02-06T18:41:53.261Z,27.83
2018-02-06T18:44:21.035Z,24.90
2018-02-06T18:46:48.703Z,24.63
2018-02-06T18:49:16.250Z,26.40
2018-02-06T18:51:43.770Z,28.05
2018-02-06T18:54:12.406Z,18.40
2018-02-06T18:56:40.680Z,22.10
2018-02-06T18:59:09.426Z,26.73
2018-02-06T19:01:37.158Z,23.33
2018-02-06T19:04:04.738Z,23.70
2018-02-06T19:06:32.891Z,20.88
2018-02-06T19:09:01.093Z,23.70
2018-02-06T19:11:28.926Z,22.08
2018-02-06T19:13:57.129Z,25.23
2018-02-06T19:16:24.651Z,26.37
2018-02-06T19:18:52.182Z,27.00
2018-02-06T19:21:20.484Z,28.02
2018-02-06T19:23:48.250Z,25.33
2018-02-06T19:26:15.916Z,21.52
2018-02-06T19:28:44.455Z,24.42
2018-02-06T19:31:12.032Z,29.23
2018-02-06T19:33:40.946Z,21.70
2018-02-06T19:36:08.622Z,23.27
2018-02-06T19:38:36.575Z,26.27
2018-02-06T19:41:04.528Z,23.25
2018-02-06T19:43:33.027Z,26.98
2018-02-06T19:46:00.561Z,24.05
2018-02-06T19:48:29.965Z,22.62
2018-02-06T19:50:57.663Z,25.90
2018-02-06T19:53:25.252Z,22.85
2018-02-06T19:55:54.225Z,26.00
2018-02-06T19:58:21.841Z,23.67
2018-02-06T20:00:50.882Z,22.77
2018-02-06T20:03:18.550Z,21.40
2018-02-06T20:05:46.324Z,23.42
2018-02-06T20:08:13.879Z,25.25
2018-02-06T20:10:41.613Z,25.37
2018-02-06T20:13:09.147Z,25.70
2018-02-06T20:15:37.579Z,27.40
2018-02-06T20:18:05.932Z,23.95
2018-02-06T20:20:33.507Z,28.42
2018-02-06T20:23:01.050Z,30.98
2018-02-06T20:25:28.735Z,24.50
2018-02-06T20:27:56.364Z,26.55
2018-02-06T20:30:24.692Z,24.60
2018-02-06T20:32:52.731Z,30.50
2018-02-06T20:35:20.512Z,24.87
2018-02-06T20:37:55.511Z,30.12
2018-02-06T20:40:23.100Z,29.90
2018-02-06T20:42:51.287Z,29.77
2018-02-06T20:45:19.971Z,25.00
2018-02-06T20:47:49.037Z,33.33
2018-02-06T20:50:17.613Z,20.70
2018-02-06T20:52:45.374Z,23.70
2018-02-06T20:55:13.273Z,29.50
2018-02-06T20:57:40.950Z,29.02
2018-02-06T21:00:08.710Z,24.65
2018-02-06T21:02:36.815Z,30.95
2018-02-06T21:05:04.514Z,32.55
2018-02-06T21:07:32.945Z,25.67
2018-02-06T21:10:00.510Z,35.45
2018-02-06T21:12:28.310Z,35.13
2018-02-06T21:14:57.016Z,29.58
2018-02-06T21:17:24.707Z,24.33
2018-02-06T21:19:53.271Z,26.15
2018-02-06T21:22:21.362Z,24.85
2018-02-06T21:24:49.822Z,26.55
2018-02-06T21:27:18.113Z,26.73
2018-02-06T21:29:45.681Z,27.05
2018-02-06T21:32:13.243Z,23.85
2018-02-06T21:34:40.782Z,32.67
2018-02-06T21:37:08.350Z,27.17
2018-02-06T21:39:35.910Z,29.52
2018-02-06T21:42:03.434Z,21.73
2018-02-06T21:44:30.963Z,24.42
2018-02-06T21:46:58.525Z,31.83
2018-02-06T21:49:26.076Z,27.33
2018-02-06T21:51:53.694Z,22.62
2018-02-06T21:54:22.006Z,23.23
2018-02-06T21:56:49.578Z,32.78
2018-02-06T21:59:18.025Z,22.50
2018-02-06T22:01:46.310Z,25.52
2018-02-06T22:04:13.909Z,23.40
2018-02-06T22:06:41.457Z,21.10
2018-02-06T22:09:08.971Z,21.85
2018-02-06T22:11:37.374Z,19.25
2018-02-06T22:14:04.941Z,25.23
2018-02-06T22:16:32.594Z,29.67
2018-02-06T22:19:00.146Z,26.55
2018-02-06T22:21:28.443Z,24.02
2018-02-06T22:23:56.017Z,26.55
2018-02-06T22:26:23.588Z,25.70
2018-02-06T22:28:51.114Z,31.52
2018-02-06T22:31:18.686Z,20.77
2018-02-06T22:33:46.207Z,26.60
2018-02-06T22:36:14.526Z,21.42
2018-02-06T22:38:42.030Z,25.90
2018-02-06T22:41:09.553Z,22.67
2018-02-06T22:43:37.098Z,22.10
2018-02-06T22:46:04.663Z,27.90
2018-02-06T22:48:32.170Z,28.50
2018-02-06T22:50:59.701Z,27.50
2018-02-06T22:53:27.667Z,24.23
2018-02-06T22:55:55.213Z,23.67
2018-02-06T22:58:22.723Z,24.77
2018-02-06T23:00:50.257Z,29.37
2018-02-06T23:03:17.777Z,22.15
2018-02-06T23:05:45.313Z,42.85
2018-02-06T23:08:13.595Z,33.80
2018-02-06T23:10:42.218Z,25.15
2018-02-06T23:13:09.748Z,27.37
2018-02-06T23:15:38.056Z,65.53
2018-02-06T23:18:05.601Z,23.62
2018-02-06T23:20:33.135Z,41.95
2018-02-06T23:23:00.751Z,46.47
2018-02-06T23:25:28.387Z,45.63
2018-02-06T23:27:55.893Z,37.35
2018-02-06T23:30:23.434Z,37.55
2018-02-06T23:32:50.982Z,27.75
2018-02-06T23:35:18.518Z,36.78
2018-02-06T23:37:46.027Z,25.70
2018-02-06T23:40:13.661Z,40.15
2018-02-06T23:42:41.275Z,34.40
2018-02-06T23:45:08.879Z,24.00
2018-02-06T23:47:36.390Z,25.27
2018-02-06T23:50:04.680Z,28.92
2018-02-06T23:52:32.273Z,24.40
2018-02-06T23:54:59.846Z,32.70
2018-02-06T23:57:27.407Z,26.75
2018-02-06T23:59:54.952Z,22.83
